createdAt,value
2023-04-18T00:01:38.489Z,100082.75
2023-04-18T00:06:41.365Z,100080.03
2023-04-18T00:11:44.526Z,100079.34
2023-04-18T00:16:47.706Z,100079.98
2023-04-18T00:21:54.099Z,100074.02
2023-04-18T00:26:57.344Z,100075.31
2023-04-18T00:32:00.185Z,100077.79
2023-04-18T00:37:02.981Z,100074.14
2023-04-18T00:42:06.209Z,100077.77
2023-04-18T00:47:09.037Z,100077.15
2023-04-18T00:52:13.202Z,100075.55
2023-04-18T00:57:16.564Z,100074.93
2023-04-18T01:02:19.989Z,100075.91
2023-04-18T01:07:22.939Z,100074.72
2023-04-18T01:12:25.838Z,100073.90
2023-04-18T01:17:29.835Z,100074.80
2023-04-18T01:22:33.586Z,100076.52
2023-04-18T01:27:36.321Z,100077.76
2023-04-18T01:32:39.212Z,100081.73
2023-04-18T01:37:42.227Z,100078.81
2023-04-18T01:42:45.093Z,100078.52
2023-04-18T01:47:48.220Z,100081.92
2023-04-18T01:52:51.058Z,100088.29
2023-04-18T01:57:53.899Z,100083.43
2023-04-18T02:02:59.831Z,100080.34
2023-04-18T02:08:02.992Z,100086.64
2023-04-18T02:13:06.882Z,100084.67
2023-04-18T02:18:09.843Z,100077.59
2023-04-18T02:23:12.713Z,100078.95
2023-04-18T02:28:15.553Z,100079.09
2023-04-18T02:33:18.373Z,100083.19
2023-04-18T02:38:21.564Z,100080.59
2023-04-18T02:43:24.354Z,100078.04
2023-04-18T02:48:27.342Z,100078.05
2023-04-18T02:53:30.308Z,100083.17
2023-04-18T02:58:34.894Z,100085.97
2023-04-18T03:03:38.102Z,100086.35
2023-04-18T03:08:41.332Z,100086.60
2023-04-18T03:13:44.169Z,100087.67
2023-04-18T03:18:47.052Z,100089.45
2023-04-18T03:23:50.249Z,100090.44
2023-04-18T03:28:53.072Z,100094.37
2023-04-18T03:33:55.888Z,100086.67
2023-04-18T03:38:58.712Z,100087.94
2023-04-18T03:44:01.558Z,100089.27
2023-04-18T03:49:04.415Z,100091.64
2023-04-18T03:54:07.219Z,100093.59
2023-04-18T03:59:11.200Z,100093.50
2023-04-18T04:04:15.787Z,100092.72
2023-04-18T04:09:19.065Z,100100.38
2023-04-18T04:14:22.932Z,100102.73
2023-04-18T04:19:25.787Z,100105.59
2023-04-18T04:24:29.263Z,100109.81
2023-04-18T04:29:32.119Z,100116.63
2023-04-18T04:34:35.751Z,100119.76
2023-04-18T04:39:38.728Z,100125.79
2023-04-18T04:44:43.046Z,100126.17
2023-04-18T04:49:46.601Z,100126.39
2023-04-18T04:54:51.879Z,100128.56
2023-04-18T04:59:54.725Z,100132.70
2023-04-18T05:04:57.538Z,100142.83
2023-04-18T05:10:00.350Z,100145.83
2023-04-18T05:15:03.634Z,100146.27
2023-04-18T05:20:07.403Z,100150.05
2023-04-18T05:25:10.617Z,100153.16
2023-04-18T05:30:13.921Z,100152.70
2023-04-18T05:35:16.827Z,100141.50
2023-04-18T05:40:19.726Z,100143.41
2023-04-18T05:45:22.515Z,100140.09
2023-04-18T05:50:25.376Z,100149.73
2023-04-18T05:55:28.345Z,100154.38
2023-04-18T06:00:31.575Z,100155.63
2023-04-18T06:05:34.770Z,100144.70
2023-04-18T06:10:39.138Z,100143.08
2023-04-18T06:15:42.332Z,100153.94
2023-04-18T06:20:45.417Z,100168.35
2023-04-18T06:25:48.794Z,100167.96
2023-04-18T06:30:51.688Z,100173.77
2023-04-18T06:35:54.614Z,100175.30
2023-04-18T06:40:57.454Z,100178.00
2023-04-18T06:46:01.243Z,100179.52
2023-04-18T06:51:04.510Z,100178.64
2023-04-18T06:56:07.869Z,100177.13
2023-04-18T07:01:10.771Z,100170.30
2023-04-18T07:06:13.668Z,100175.48
2023-04-18T07:11:18.616Z,100172.40
2023-04-18T07:16:21.663Z,100175.02
2023-04-18T07:21:24.567Z,100184.67
2023-04-18T07:26:27.751Z,100186.42
2023-04-18T07:31:32.038Z,100179.92
2023-04-18T07:36:35.045Z,100182.30
2023-04-18T07:41:37.862Z,100183.14
2023-04-18T07:46:40.935Z,100184.25
2023-04-18T07:51:43.930Z,100184.14
2023-04-18T07:56:46.851Z,100182.95
2023-04-18T08:01:49.792Z,100182.83
2023-04-18T08:06:52.995Z,100180.83
2023-04-18T08:11:56.947Z,100177.54
2023-04-18T08:16:59.806Z,100179.03
2023-04-18T08:22:10.706Z,100179.08
2023-04-18T08:27:13.648Z,100177.61
2023-04-18T08:32:16.486Z,100178.98
2023-04-18T08:37:19.422Z,100171.73
2023-04-18T08:42:23.517Z,100169.67
2023-04-18T08:47:30.373Z,100162.61
2023-04-18T08:52:36.203Z,100161.48
2023-04-18T08:57:39.978Z,100165.08
2023-04-18T09:02:43.861Z,100167.56
2023-04-18T09:07:49.639Z,100169.04
2023-04-18T09:12:52.550Z,100168.11
2023-04-18T09:18:02.705Z,100167.47
2023-04-18T09:23:10.670Z,100168.63
2023-04-18T09:28:28.899Z,100166.14
2023-04-18T09:33:36.851Z,100158.74
2023-04-18T09:38:41.314Z,100151.92
2023-04-18T09:43:47.256Z,100154.75
2023-04-18T09:48:50.331Z,100159.05
2023-04-18T09:53:53.976Z,100159.23
2023-04-18T09:59:08.450Z,100159.74
2023-04-18T10:04:12.902Z,100155.06
2023-04-18T10:09:16.484Z,100156.70
2023-04-18T10:14:19.921Z,100155.79
2023-04-18T10:19:26.102Z,100158.50
2023-04-18T10:24:56.134Z,100154.83
2023-04-18T10:29:59.121Z,100152.73
2023-04-18T10:35:02.213Z,100152.98
2023-04-18T10:40:07.641Z,100151.95
2023-04-18T10:45:24.742Z,100146.48
2023-04-18T10:50:27.569Z,100144.08
2023-04-18T10:55:31.547Z,100137.77
2023-04-18T11:00:34.766Z,100132.91
2023-04-18T11:05:37.797Z,100137.69
2023-04-18T11:10:43.764Z,100135.13
2023-04-18T11:15:46.589Z,100127.39
2023-04-18T11:20:51.686Z,100126.96
2023-04-18T11:25:56.527Z,100120.57
2023-04-18T11:31:02.939Z,100116.13
2023-04-18T11:36:06.826Z,100111.63
2023-04-18T11:41:16.421Z,100106.95
2023-04-18T11:46:19.283Z,100105.55
2023-04-18T11:51:38.833Z,100100.34
2023-04-18T11:56:48.961Z,100097.12
2023-04-18T12:02:14.795Z,100093.01
2023-04-18T12:07:39.508Z,100086.02
2023-04-18T12:12:49.959Z,100082.34
2023-04-18T12:17:57.114Z,100081.65
2023-04-18T12:23:00.055Z,100078.02
2023-04-18T12:28:18.629Z,100071.83
2023-04-18T12:33:21.670Z,100069.04
2023-04-18T12:38:24.626Z,100061.24
2023-04-18T12:43:27.550Z,100061.83
2023-04-18T12:48:30.386Z,100061.48
2023-04-18T12:53:33.209Z,100059.23
2023-04-18T12:58:36.134Z,100058.39
2023-04-18T13:03:39.317Z,100054.46
2023-04-18T13:08:42.752Z,100051.23
2023-04-18T13:13:45.575Z,100045.81
2023-04-18T13:18:48.368Z,100044.95
2023-04-18T13:23:51.300Z,100042.84
2023-04-18T13:28:54.104Z,100038.65
2023-04-18T13:33:57.632Z,100038.51
2023-04-18T13:39:01.539Z,100039.11
2023-04-18T13:44:04.696Z,100031.78
2023-04-18T13:49:07.560Z,100033.73
2023-04-18T13:54:10.746Z,100030.21
2023-04-18T13:59:13.785Z,100030.85
2023-04-18T14:04:17.423Z,100029.54
2023-04-18T14:09:20.472Z,100027.88
2023-04-18T14:14:23.545Z,100026.23
2023-04-18T14:19:27.616Z,100022.02
2023-04-18T14:24:30.444Z,100022.67
2023-04-18T14:29:33.257Z,100018.53
2023-04-18T14:34:37.380Z,100015.79
2023-04-18T14:39:41.717Z,100016.47
2023-04-18T14:44:44.573Z,100013.92
2023-04-18T14:49:47.388Z,100004.45
2023-04-18T14:54:50.180Z,100002.12
2023-04-18T14:59:54.987Z,100003.29
2023-04-18T15:04:59.552Z,99998.46
2023-04-18T15:10:02.482Z,99995.48
2023-04-18T15:15:06.952Z,99992.52
2023-04-18T15:20:10.561Z,99987.67
2023-04-18T15:25:16.460Z,99986.90
2023-04-18T15:30:19.880Z,99987.38
2023-04-18T15:35:23.132Z,99987.66
2023-04-18T15:40:28.281Z,99986.45
2023-04-18T15:45:31.834Z,99981.20
2023-04-18T15:50:34.544Z,99980.31
2023-04-18T15:55:37.463Z,99980.27
2023-04-18T16:00:40.265Z,99978.22
2023-04-18T16:05:43.329Z,99978.05
2023-04-18T16:10:52.208Z,99979.27
2023-04-18T16:15:55.100Z,99977.67
2023-04-18T16:20:58.388Z,99974.48
2023-04-18T16:26:01.255Z,99974.98
2023-04-18T16:31:07.172Z,99973.39
2023-04-18T16:36:12.476Z,99970.23
2023-04-18T16:41:15.430Z,99969.86
2023-04-18T16:46:19.158Z,99972.87
2023-04-18T16:51:22.469Z,99971.47
2023-04-18T16:56:25.346Z,99969.54
2023-04-18T17:01:28.296Z,99965.27
2023-04-18T17:06:32.644Z,99966.48
2023-04-18T17:11:39.571Z,99963.98
2023-04-18T17:16:43.066Z,99966.18
2023-04-18T17:21:46.421Z,99966.08
2023-04-18T17:26:49.565Z,99965.95
2023-04-18T17:31:52.477Z,99966.23
2023-04-18T17:36:55.329Z,99964.52
2023-04-18T17:42:02.259Z,99965.09
2023-04-18T17:47:07.354Z,99969.04
2023-04-18T17:52:10.412Z,99971.11
2023-04-18T17:57:13.239Z,99973.87
2023-04-18T18:02:16.645Z,99975.77
2023-04-18T18:07:19.527Z,99971.33
2023-04-18T18:12:22.347Z,99970.64
2023-04-18T18:17:25.195Z,99968.79
2023-04-18T18:22:28.672Z,99963.95
2023-04-18T18:27:31.842Z,99962.34
2023-04-18T18:32:34.744Z,99954.91
2023-04-18T18:37:37.661Z,99953.70
2023-04-18T18:42:41.239Z,99950.67
2023-04-18T18:47:43.935Z,99949.88
2023-04-18T18:52:46.944Z,99946.98
2023-04-18T18:57:49.837Z,99937.75
2023-04-18T19:02:52.965Z,99937.13
2023-04-18T19:07:56.022Z,99933.02
2023-04-18T19:13:00.286Z,99931.33
2023-04-18T19:18:03.212Z,99926.62
2023-04-18T19:23:06.127Z,99921.50
2023-04-18T19:28:09.036Z,99917.85
2023-04-18T19:33:12.846Z,99918.52
2023-04-18T19:38:15.761Z,99912.41
2023-04-18T19:43:18.724Z,99907.91
2023-04-18T19:48:21.564Z,99903.70
2023-04-18T19:53:24.500Z,99899.05
2023-04-18T19:58:39.791Z,99894.03
2023-04-18T20:03:43.064Z,99892.70
2023-04-18T20:08:46.291Z,99889.34
2023-04-18T20:13:49.432Z,99885.23
2023-04-18T20:18:54.811Z,99878.76
2023-04-18T20:23:59.355Z,99875.98
2023-04-18T20:29:03.780Z,99868.05
2023-04-18T20:34:06.724Z,99858.33
2023-04-18T20:39:09.681Z,99857.85
2023-04-18T20:44:13.873Z,99850.46
2023-04-18T20:49:16.946Z,99849.89
2023-04-18T20:54:19.984Z,99845.49
2023-04-18T20:59:22.838Z,99843.27
2023-04-18T21:04:26.631Z,99835.44
2023-04-18T21:09:36.437Z,99830.55
2023-04-18T21:14:39.914Z,99825.04
2023-04-18T21:19:51.100Z,99817.86
2023-04-18T21:24:53.924Z,99808.80
2023-04-18T21:29:57.028Z,99802.52
2023-04-18T21:35:00.742Z,99797.91
2023-04-18T21:40:04.665Z,99794.39
2023-04-18T21:45:11.172Z,99792.71
2023-04-18T21:50:14.211Z,99788.73
2023-04-18T21:55:17.930Z,99777.98
2023-04-18T22:00:20.740Z,99777.54
2023-04-18T22:05:23.545Z,99770.86
2023-04-18T22:10:26.412Z,99768.45
2023-04-18T22:15:30.187Z,99769.20
2023-04-18T22:20:33.820Z,99768.91
2023-04-18T22:25:36.939Z,99760.27
2023-04-18T22:30:39.956Z,99755.77
2023-04-18T22:35:42.827Z,99746.95
2023-04-18T22:40:45.646Z,99744.16
2023-04-18T22:45:48.549Z,99737.73
2023-04-18T22:50:51.526Z,99738.83
2023-04-18T22:55:54.349Z,99733.02
2023-04-18T23:00:57.281Z,99722.88
2023-04-18T23:06:01.272Z,99717.52
2023-04-18T23:11:04.130Z,99711.00
2023-04-18T23:16:08.266Z,99707.18
2023-04-18T23:21:11.187Z,99702.54
2023-04-18T23:26:15.331Z,99701.33
2023-04-18T23:31:19.234Z,99687.99
2023-04-18T23:36:22.129Z,99675.13
2023-04-18T23:41:25.012Z,99666.70
2023-04-18T23:46:27.870Z,99659.98
2023-04-18T23:51:31.172Z,99656.87
2023-04-18T23:56:34.852Z,99650.91
